createdAt,value
2023-04-03T00:00:18.848Z,100878.79
2023-04-03T00:05:20.710Z,100891.94
2023-04-03T00:10:22.510Z,100887.61
2023-04-03T00:15:24.079Z,100894.93
2023-04-03T00:20:25.724Z,100898.35
2023-04-03T00:25:28.376Z,100900.42
2023-04-03T00:30:30.136Z,100898.39
2023-04-03T00:35:31.867Z,100901.95
2023-04-03T00:40:40.051Z,100898.13
2023-04-03T00:45:44.329Z,100901.48
2023-04-03T00:50:48.439Z,100902.80
2023-04-03T00:55:52.014Z,100914.41
2023-04-03T01:00:58.976Z,100919.77
2023-04-03T01:06:00.957Z,100920.23
2023-04-03T01:11:02.524Z,100925.30
2023-04-03T01:16:07.835Z,100932.25
2023-04-03T01:21:47.928Z,100929.34
2023-04-03T01:26:51.385Z,100933.90
2023-04-03T01:31:58.999Z,100942.26
2023-04-03T01:37:00.572Z,100949.73
2023-04-03T01:42:02.158Z,100958.63
2023-04-03T01:47:07.109Z,100960.98
2023-04-03T01:52:08.601Z,100961.86
2023-04-03T01:57:10.233Z,100964.88
2023-04-03T02:02:13.454Z,100971.92
2023-04-03T02:07:14.978Z,100971.29
2023-04-03T02:12:16.861Z,100974.80
2023-04-03T02:17:18.655Z,100978.95
2023-04-03T02:22:21.211Z,100984.91
2023-04-03T02:27:22.841Z,100985.55
2023-04-03T02:32:24.860Z,100990.52
2023-04-03T02:37:26.701Z,100991.78
2023-04-03T02:42:29.076Z,100994.57
2023-04-03T02:47:30.852Z,101000.06
2023-04-03T02:52:33.007Z,100999.73
2023-04-03T02:57:34.566Z,101001.44
2023-04-03T03:02:36.480Z,100998.54
2023-04-03T03:07:38.117Z,101007.55
2023-04-03T03:12:39.595Z,101011.13
2023-04-03T03:17:41.186Z,101017.11
2023-04-03T03:22:42.877Z,101015.98
2023-04-03T03:27:44.549Z,101013.70
2023-04-03T03:32:46.456Z,101019.14
2023-04-03T03:37:48.057Z,101020.09
2023-04-03T03:42:49.846Z,101023.64
2023-04-03T03:47:51.384Z,101028.35
2023-04-03T03:52:53.079Z,101031.80
2023-04-03T03:57:54.709Z,101031.08
2023-04-03T04:02:58.728Z,101036.20
2023-04-03T04:08:00.988Z,101043.92
2023-04-03T04:13:02.556Z,101040.65
2023-04-03T04:18:04.654Z,101044.55
2023-04-03T04:23:06.304Z,101040.27
2023-04-03T04:28:07.856Z,101044.61
2023-04-03T04:33:09.579Z,101047.93
2023-04-03T04:38:11.579Z,101054.91
2023-04-03T04:43:15.893Z,101056.02
2023-04-03T04:48:17.560Z,101058.23
2023-04-03T04:53:19.200Z,101067.29
2023-04-03T04:58:21.292Z,101068.12
2023-04-03T05:03:22.803Z,101073.23
2023-04-03T05:08:24.699Z,101082.38
2023-04-03T05:13:26.337Z,101091.34
2023-04-03T05:18:27.855Z,101093.23
2023-04-03T05:23:29.342Z,101102.05
2023-04-03T05:28:31.232Z,101103.08
2023-04-03T05:33:32.903Z,101109.36
2023-04-03T05:38:34.999Z,101115.34
2023-04-03T05:43:38.811Z,101120.57
2023-04-03T05:48:40.870Z,101116.73
2023-04-03T05:53:44.411Z,101123.14
2023-04-03T05:58:45.919Z,101124.27
2023-04-03T06:03:47.494Z,101130.19
2023-04-03T06:08:49.428Z,101132.18
2023-04-03T06:13:50.943Z,101144.27
2023-04-03T06:18:52.414Z,101156.23
2023-04-03T06:23:53.935Z,101151.65
2023-04-03T06:28:55.507Z,101155.25
2023-04-03T06:33:57.543Z,101159.17
2023-04-03T06:38:59.022Z,101169.13
2023-04-03T06:44:00.590Z,101170.02
2023-04-03T06:49:02.569Z,101164.72
2023-04-03T06:54:06.900Z,101172.48
2023-04-03T06:59:09.598Z,101181.52
2023-04-03T07:04:11.412Z,101174.61
2023-04-03T07:09:13.348Z,101173.85
2023-04-03T07:14:14.857Z,101183.05
2023-04-03T07:19:16.688Z,101184.91
2023-04-03T07:24:18.169Z,101197.25
2023-04-03T07:29:22.596Z,101200.48
2023-04-03T07:34:24.320Z,101200.61
2023-04-03T07:39:26.550Z,101199.89
2023-04-03T07:44:28.522Z,101208.95
2023-04-03T07:49:30.075Z,101204.99
2023-04-03T07:54:31.850Z,101214.05
2023-04-03T07:59:33.742Z,101208.07
2023-04-03T08:04:36.179Z,101211.95
2023-04-03T08:09:38.057Z,101212.00
2023-04-03T08:14:39.601Z,101211.50
2023-04-03T08:19:41.699Z,101217.77
2023-04-03T08:24:52.541Z,101222.28
2023-04-03T08:30:00.983Z,101212.11
2023-04-03T08:35:03.348Z,101214.30
2023-04-03T08:40:09.059Z,101220.10
2023-04-03T08:45:16.942Z,101221.77
2023-04-03T08:50:23.040Z,101218.50
2023-04-03T08:55:36.323Z,101226.11
2023-04-03T09:00:52.925Z,101230.35
2023-04-03T09:05:57.093Z,101230.88
2023-04-03T09:11:10.593Z,101234.05
2023-04-03T09:16:26.722Z,101223.20
2023-04-03T09:21:48.946Z,101231.28
2023-04-03T09:27:05.230Z,101236.36
2023-04-03T09:32:35.330Z,101235.31
2023-04-03T09:37:41.684Z,101227.45
2023-04-03T09:42:46.294Z,101238.61
2023-04-03T09:48:06.771Z,101227.52
2023-04-03T09:53:28.609Z,101234.45
2023-04-03T09:58:49.102Z,101240.95
2023-04-03T10:04:07.295Z,101231.30
2023-04-03T10:09:35.604Z,101229.43
2023-04-03T10:14:55.316Z,101234.99
2023-04-03T10:20:02.649Z,101244.30
2023-04-03T10:25:43.011Z,101244.41
2023-04-03T10:30:53.509Z,101238.83
2023-04-03T10:36:19.081Z,101234.75
2023-04-03T10:42:16.655Z,101234.52
2023-04-03T10:47:25.823Z,101228.99
2023-04-03T10:52:47.693Z,101236.47
2023-04-03T10:57:50.278Z,101236.46
2023-04-03T11:03:04.136Z,101230.66
2023-04-03T11:08:13.408Z,101236.28
2023-04-03T11:13:18.373Z,101236.41
2023-04-03T11:18:25.327Z,101236.34
2023-04-03T11:23:32.735Z,101230.25
2023-04-03T11:28:41.816Z,101229.65
2023-04-03T11:33:52.616Z,101223.99
2023-04-03T11:38:58.855Z,101226.69
2023-04-03T11:44:27.897Z,101216.70
2023-04-03T11:49:54.764Z,101215.69
2023-04-03T11:54:56.520Z,101215.31
2023-04-03T11:59:58.366Z,101220.52
2023-04-03T12:05:37.163Z,101218.86
2023-04-03T12:10:39.037Z,101211.96
2023-04-03T12:15:40.645Z,101217.73
2023-04-03T12:20:59.638Z,101212.95
2023-04-03T12:26:07.548Z,101217.21
2023-04-03T12:31:11.874Z,101206.22
2023-04-03T12:36:27.292Z,101210.86
2023-04-03T12:41:44.395Z,101208.50
2023-04-03T12:46:50.983Z,101208.25
2023-04-03T12:51:53.207Z,101211.17
2023-04-03T12:57:30.249Z,101207.31
2023-04-03T13:02:38.451Z,101208.01
2023-04-03T13:07:41.956Z,101205.73
2023-04-03T13:12:51.785Z,101196.21
2023-04-03T13:17:55.079Z,101193.13
2023-04-03T13:23:18.542Z,101203.06
2023-04-03T13:28:25.746Z,101199.30
2023-04-03T13:33:32.418Z,101186.41
2023-04-03T13:38:35.143Z,101185.60
2023-04-03T13:43:38.161Z,101180.55
2023-04-03T13:48:52.265Z,101194.67
2023-04-03T13:53:58.557Z,101192.78
2023-04-03T13:59:20.926Z,101190.13
2023-04-03T14:04:27.396Z,101200.95
2023-04-03T14:09:29.259Z,101200.26
2023-04-03T14:14:36.536Z,101204.12
2023-04-03T14:19:38.037Z,101198.64
2023-04-03T14:24:40.306Z,101201.79
2023-04-03T14:29:42.357Z,101200.85
2023-04-03T14:34:44.549Z,101200.55
2023-04-03T14:39:47.077Z,101204.64
2023-04-03T14:44:49.281Z,101205.85
2023-04-03T14:49:50.945Z,101208.59
2023-04-03T14:54:54.402Z,101204.28
2023-04-03T14:59:56.079Z,101203.70
2023-04-03T15:04:58.671Z,101204.02
2023-04-03T15:10:14.698Z,101203.02
2023-04-03T15:15:18.496Z,101200.70
2023-04-03T15:20:24.165Z,101200.25
2023-04-03T15:25:26.971Z,101201.27
2023-04-03T15:30:28.508Z,101203.30
2023-04-03T15:35:30.094Z,101201.82
2023-04-03T15:40:31.693Z,101204.22
2023-04-03T15:45:36.031Z,101196.95
2023-04-03T15:50:37.888Z,101199.48
2023-04-03T15:55:40.425Z,101200.35
2023-04-03T16:00:42.781Z,101188.95
2023-04-03T16:05:44.765Z,101190.98
2023-04-03T16:10:47.234Z,101190.11
2023-04-03T16:15:49.877Z,101192.61
2023-04-03T16:20:51.744Z,101197.46
2023-04-03T16:25:53.508Z,101191.80
2023-04-03T16:30:55.062Z,101199.64
2023-04-03T16:35:56.598Z,101200.89
2023-04-03T16:41:00.377Z,101204.34
2023-04-03T16:46:03.473Z,101203.98
2023-04-03T16:51:05.243Z,101214.05
2023-04-03T16:56:06.786Z,101220.73
2023-04-03T17:01:14.545Z,101218.12
2023-04-03T17:06:24.276Z,101224.92
2023-04-03T17:11:26.755Z,101225.66
2023-04-03T17:16:29.977Z,101226.45
2023-04-03T17:21:33.245Z,101229.80
2023-04-03T17:26:37.509Z,101238.96
2023-04-03T17:31:39.147Z,101240.30
2023-04-03T17:36:41.757Z,101250.83
2023-04-03T17:41:45.986Z,101247.91
2023-04-03T17:46:47.645Z,101253.79
2023-04-03T17:51:49.335Z,101257.31
2023-04-03T17:56:50.976Z,101261.23
2023-04-03T18:01:53.402Z,101262.17
2023-04-03T18:06:56.087Z,101260.22
2023-04-03T18:11:58.200Z,101259.48
2023-04-03T18:16:59.744Z,101260.80
2023-04-03T18:22:05.333Z,101261.02
2023-04-03T18:27:12.989Z,101264.58
2023-04-03T18:32:17.930Z,101268.23
2023-04-03T18:37:20.979Z,101268.86
2023-04-03T18:42:26.007Z,101268.66
2023-04-03T18:47:29.027Z,101268.34
2023-04-03T18:52:30.636Z,101268.27
2023-04-03T18:57:32.218Z,101266.84
2023-04-03T19:02:34.222Z,101267.02
2023-04-03T19:07:35.948Z,101270.17
2023-04-03T19:12:37.472Z,101270.52
2023-04-03T19:17:39.348Z,101272.11
2023-04-03T19:22:41.817Z,101269.85
2023-04-03T19:27:43.346Z,101268.64
2023-04-03T19:32:44.907Z,101265.71
2023-04-03T19:37:50.823Z,101272.27
2023-04-03T19:42:52.872Z,101275.46
2023-04-03T19:47:54.731Z,101281.13
2023-04-03T19:52:56.345Z,101278.07
2023-04-03T19:57:59.733Z,101284.20
2023-04-03T20:03:01.775Z,101288.31
2023-04-03T20:08:03.861Z,101282.30
2023-04-03T20:13:08.624Z,101287.57
2023-04-03T20:18:18.829Z,101284.55
2023-04-03T20:23:21.056Z,101287.84
2023-04-03T20:28:23.121Z,101284.20
2023-04-03T20:33:28.146Z,101284.79
2023-04-03T20:38:29.987Z,101283.30
2023-04-03T20:43:31.529Z,101281.47
2023-04-03T20:48:33.016Z,101280.55
2023-04-03T20:53:34.764Z,101282.18
2023-04-03T20:58:39.002Z,101286.07
2023-04-03T21:03:40.916Z,101284.79
2023-04-03T21:09:20.837Z,101288.66
2023-04-03T21:15:00.170Z,101290.92
2023-04-03T21:20:01.718Z,101287.30
2023-04-03T21:25:03.492Z,101288.29
2023-04-03T21:30:06.374Z,101288.06
2023-04-03T21:35:09.524Z,101287.73
2023-04-03T21:40:11.601Z,101297.85
2023-04-03T21:45:16.204Z,101296.73
2023-04-03T21:50:19.379Z,101293.70
2023-04-03T21:55:20.890Z,101298.09
2023-04-03T22:00:28.868Z,101290.17
2023-04-03T22:05:32.159Z,101291.70
2023-04-03T22:10:34.266Z,101293.23
2023-04-03T22:15:42.875Z,101282.60
2023-04-03T22:20:44.718Z,101291.73
2023-04-03T22:26:03.671Z,101284.54
2023-04-03T22:31:09.839Z,101284.42
2023-04-03T22:36:13.554Z,101285.34
2023-04-03T22:41:15.105Z,101286.35
2023-04-03T22:46:16.693Z,101288.41
2023-04-03T22:51:18.237Z,101284.36
2023-04-03T22:56:19.923Z,101281.17
2023-04-03T23:01:24.147Z,101280.11
2023-04-03T23:06:26.755Z,101276.77
2023-04-03T23:11:28.245Z,101274.82
2023-04-03T23:16:29.825Z,101275.85
2023-04-03T23:21:31.525Z,101268.73
2023-04-03T23:26:32.994Z,101263.61
2023-04-03T23:31:34.506Z,101258.77
2023-04-03T23:36:36.358Z,101256.88
2023-04-03T23:41:37.848Z,101258.71
2023-04-03T23:46:39.583Z,101256.29
2023-04-03T23:51:41.328Z,101252.86
2023-04-03T23:56:42.797Z,101253.23
